^^

STATION HISTORICAL DATA

Daily Summary for September 25, 2018 Units:  English    Metric   Both
« Previous Day
Next Day »
Daily Weekly Monthly Yearly Custom
  Current: High: Low: Average:
Temperature: 64.7 °F 80.8 °F 58 °F 67.4 °F
Dew Point: 62.9 °F 69.1 °F 56.6 °F 62.6 °F
Humidity: 94 % 96 % 58 % 86 %
Wind Speed: 0 mph 18.4 mph 0 mph 2.9 mph
Wind Gust: 0 mph 10.1 mph - -
Wind:Calm - - SW
Pressure: 29.77 in 29.88 in 29.73 in -
Precipitation: 0.61 in      
Historical Graphs
 
 
Tabular Data for September 25, 2018
Time Temperature Dew Point Pressure Wind Wind Speed Wind Gust Humidity Rainfall Rate (Hourly) solar Conditions
00:04 65.9 °F 63.8 °F 29.87 in South 1 mph 0.1 mph 93 % 0 in 0.00 W/m2 BKN
00:09 66.1 °F 64 °F 29.87 in South 3.5 mph   93 % 0 in 0.00 W/m2 BKN
00:14 66.1 °F 64 °F 29.87 in SSE 5.8 mph 0.7 mph 93 % 0 in 0.00 W/m2 BKN
00:19 66.4 °F 64.3 °F 29.87 in Calm     93 % 0 in 0.00 W/m2 BKN
00:24 66.5 °F 64.4 °F 29.87 in Calm     93 % 0 in 0.00 W/m2 OVC
00:29 66.5 °F 64.4 °F 29.87 in Calm     93 % 0 in 0.00 W/m2 OVC
00:34 66.5 °F 64.1 °F 29.87 in Calm     92 % 0 in 0.00 W/m2 OVC
00:39 66.5 °F 64.1 °F 29.87 in Calm     92 % 0 in 0.00 W/m2 OVC
00:44 66.5 °F 64.1 °F 29.87 in Calm     92 % 0 in 0.00 W/m2 OVC
00:49 66.5 °F 64.1 °F 29.87 in Calm     92 % 0 in 0.00 W/m2 OVC
00:54 66.4 °F 64 °F 29.87 in Calm     92 % 0 in 0.00 W/m2 OVC
00:59 66.2 °F 63.8 °F 29.86 in Calm     92 % 0 in 0.00 W/m2 OVC
01:04 66 °F 63.6 °F 29.86 in Calm     92 % 0 in 0.00 W/m2 BKN
01:09 65.6 °F 63.2 °F 29.87 in Calm     92 % 0 in 0.00 W/m2 BKN
01:14 65.3 °F 62.9 °F 29.87 in Calm     92 % 0 in 0.00 W/m2 BKN
01:19 65 °F 62.6 °F 29.87 in Calm     92 % 0 in 0.00 W/m2 BKN
01:24 64.9 °F 62.5 °F 29.87 in Calm     92 % 0 in 0.00 W/m2 BKN
01:29 64.8 °F 62.4 °F 29.87 in Calm     92 % 0 in 0.00 W/m2 BKN
01:34 64.8 °F 62.4 °F 29.87 in Calm     92 % 0 in 0.00 W/m2 BKN
01:39 64.9 °F 62.5 °F 29.87 in Calm     92 % 0 in 0.00 W/m2 BKN
01:44 64.9 °F 62.5 °F 29.87 in Calm     92 % 0 in 0.00 W/m2 BKN
01:49 65.1 °F 63 °F 29.88 in Calm     93 % 0 in 0.00 W/m2 BKN
01:54 65.3 °F 63.2 °F 29.87 in Calm     93 % 0 in 0.00 W/m2 BKN
01:59 65.3 °F 63.2 °F 29.88 in Calm     93 % 0 in 0.00 W/m2 BKN
02:04 65.1 °F 63 °F 29.87 in Calm     93 % 0 in 0.00 W/m2 BKN
02:09 65 °F 62.9 °F 29.87 in Calm     93 % 0 in 0.00 W/m2 BKN
02:14 64.8 °F 62.4 °F 29.87 in Calm     92 % 0 in 0.00 W/m2 BKN
02:19 64.6 °F 62.5 °F 29.87 in Calm     93 % 0 in 0.00 W/m2 BKN
02:24 64.3 °F 61.9 °F 29.87 in Calm     92 % 0 in 0.00 W/m2 BKN
02:29 64.1 °F 61.7 °F 29.87 in Calm     92 % 0 in 0.00 W/m2 BKN
02:34 63.9 °F 61.8 °F 29.87 in Calm     93 % 0 in 0.00 W/m2 BKN
02:39 63.8 °F 61.7 °F 29.86 in Calm     93 % 0 in 0.00 W/m2 BKN
02:44 63.6 °F 61.2 °F 29.86 in Calm     92 % 0 in 0.00 W/m2 BKN
02:49 63.2 °F 60.8 °F 29.86 in Calm     92 % 0 in 0.00 W/m2 BKN
02:54 62.9 °F 60.5 °F 29.86 in Calm     92 % 0 in 0.00 W/m2 BKN
02:59 62.6 °F 60.2 °F 29.86 in Calm     92 % 0 in 0.00 W/m2 BKN
03:04 62.3 °F 60.2 °F 29.86 in Calm     93 % 0 in 0.00 W/m2 BKN
03:09 62 °F 59.6 °F 29.86 in Calm     92 % 0 in 0.00 W/m2 BKN
03:14 61.8 °F 59.8 °F 29.86 in Calm     93 % 0 in 0.00 W/m2 BKN
03:19 61.7 °F 59.7 °F 29.86 in Calm     93 % 0 in 0.00 W/m2 BKN
03:24 61.6 °F 59.6 °F 29.86 in Calm     93 % 0 in 0.00 W/m2 BKN
03:29 61.7 °F 59.7 °F 29.85 in Calm     93 % 0 in 0.00 W/m2 BKN
03:34 61.7 °F 59.7 °F 29.85 in Calm     93 % 0 in 0.00 W/m2 BKN
03:39 61.6 °F 59.6 °F 29.85 in Calm     93 % 0 in 0.00 W/m2 BKN
03:44 61.4 °F 59.4 °F 29.86 in Calm     93 % 0 in 0.00 W/m2 BKN
03:49 61 °F 59 °F 29.86 in Calm     93 % 0 in 0.00 W/m2 BKN
03:54 61.3 °F 59.6 °F 29.86 in Calm     94 % 0 in 0.00 W/m2 BKN
03:59 61.6 °F 59.9 °F 29.86 in Calm     94 % 0 in 0.00 W/m2 BKN
04:04 61.7 °F 60 °F 29.86 in Calm     94 % 0 in 0.00 W/m2 OVC
04:09 61.8 °F 60.1 °F 29.86 in Calm     94 % 0 in 0.00 W/m2 OVC
04:14 61.8 °F 60.1 °F 29.86 in Calm     94 % 0 in 0.00 W/m2 OVC
04:19 61.6 °F 59.9 °F 29.86 in Calm     94 % 0 in 0.00 W/m2 OVC
04:24 61.4 °F 59.7 °F 29.86 in Calm     94 % 0 in 0.00 W/m2 OVC
04:29 61.1 °F 59.4 °F 29.86 in Calm     94 % 0 in 0.00 W/m2 OVC
04:34 60.7 °F 59 °F 29.86 in Calm     94 % 0 in 0.00 W/m2 OVC
04:39 60.4 °F 58.4 °F 29.86 in Calm     93 % 0 in 0.00 W/m2 OVC
04:44 60.2 °F 58.5 °F 29.86 in Calm     94 % 0 in 0.00 W/m2 OVC
04:49 60 °F 58.3 °F 29.86 in Calm     94 % 0 in 0.00 W/m2 OVC
04:54 60 °F 58.3 °F 29.86 in Calm     94 % 0 in 0.00 W/m2 SCT
04:59 60.1 °F 58.4 °F 29.86 in Calm     94 % 0 in 0.00 W/m2 SCT
05:04 60.4 °F 59 °F 29.86 in Calm     95 % 0 in 0.00 W/m2 FEW
05:09 60.4 °F 58.7 °F 29.86 in Calm     94 % 0 in 0.00 W/m2 FEW
05:14 60.2 °F 58.5 °F 29.86 in Calm     94 % 0 in 0.00 W/m2 FEW
05:19 60 °F 58.3 °F 29.86 in Calm     94 % 0 in 0.00 W/m2 FEW
05:24 59.8 °F 58.1 °F 29.86 in Calm     94 % 0 in 0.00 W/m2 FEW
05:29 59.8 °F 58.4 °F 29.86 in Calm     95 % 0 in 0.00 W/m2 FEW
05:34 59.8 °F 58.1 °F 29.86 in Calm     94 % 0 in 0.00 W/m2 FEW
05:39 59.5 °F 57.8 °F 29.87 in Calm     94 % 0 in 0.00 W/m2 FEW
05:44 59.2 °F 57.5 °F 29.86 in Calm     94 % 0 in 0.00 W/m2 FEW
05:49 58.9 °F 57.2 °F 29.86 in Calm     94 % 0 in 0.00 W/m2 FEW
05:54 58.6 °F 56.9 °F 29.86 in Calm     94 % 0 in 0.00 W/m2 FEW
05:59 58.5 °F 56.8 °F 29.86 in Calm     94 % 0 in 0.00 W/m2 FEW
06:04 58.4 °F 56.7 °F 29.87 in Calm     94 % 0 in 0.00 W/m2 FEW
06:09 58.5 °F 57.1 °F 29.86 in Calm     95 % 0 in 0.00 W/m2 FEW
06:14 58.9 °F 57.5 °F 29.87 in Calm     95 % 0 in 0.00 W/m2 FEW
06:19 58.9 °F 57.5 °F 29.87 in Calm     95 % 0 in 0.00 W/m2 FEW
06:24 58.8 °F 57.1 °F 29.87 in Calm     94 % 0 in 0.00 W/m2 FEW
06:29 58.5 °F 56.8 °F 29.86 in Calm     94 % 0 in 0.00 W/m2 FEW
06:34 58.4 °F 57 °F 29.87 in Calm     95 % 0 in 0.00 W/m2 FEW
06:39 58.2 °F 56.8 °F 29.86 in Calm     95 % 0 in 0.00 W/m2 FEW
06:44 58 °F 56.6 °F 29.87 in Calm     95 % 0 in 0.00 W/m2 CLR
06:49 58.1 °F 56.7 °F 29.87 in Calm     95 % 0 in 0.00 W/m2 CLR
06:54 58.4 °F 57 °F 29.87 in Calm     95 % 0 in 0.00 W/m2 CLR
06:59 58.5 °F 57.1 °F 29.87 in Calm     95 % 0 in 7.00 W/m2 CLR
07:04 58.7 °F 57.3 °F 29.87 in Calm     95 % 0 in 11.00 W/m2 CLR
07:09 58.9 °F 57.5 °F 29.88 in Calm     95 % 0 in 16.00 W/m2 CLR
07:14 59.4 °F 58.3 °F 29.88 in Calm     96 % 0 in 21.00 W/m2 CLR
07:19 59.8 °F 58.7 °F 29.88 in Calm     96 % 0 in 25.00 W/m2 CLR
07:24 60.2 °F 59.1 °F 29.88 in Calm     96 % 0 in 32.00 W/m2 CLR
07:29 60.7 °F 59.6 °F 29.88 in Calm     96 % 0 in 42.00 W/m2 CLR
07:34 61.2 °F 60.1 °F 29.87 in Calm     96 % 0 in 44.00 W/m2 CLR
07:39 61.4 °F 60.2 °F 29.88 in Calm     96 % 0 in 56.00 W/m2 CLR
07:44 61.7 °F 60.5 °F 29.87 in Calm     96 % 0 in 56.00 W/m2 CLR
07:49 62 °F 60.8 °F 29.88 in Calm     96 % 0 in 72.00 W/m2 CLR
07:53 62 °F 60.6 °F 29.87 in Calm     95 % 0 in 84.00 W/m2 CLR
07:59 62.2 °F 60.8 °F 29.87 in Calm     95 % 0 in 95.00 W/m2 CLR
08:04 62.4 °F 61.2 °F 29.87 in Calm     96 % 0 in 98.00 W/m2 CLR
08:09 62.5 °F 61.3 °F 29.87 in Calm     96 % 0 in 111.00 W/m2 CLR
08:14 62.6 °F 61.4 °F 29.87 in Calm     96 % 0 in 137.00 W/m2 CLR
08:19 62.9 °F 61.7 °F 29.87 in Calm     96 % 0 in 179.00 W/m2 CLR
08:24 63.3 °F 62.1 °F 29.87 in Calm     96 % 0 in 162.00 W/m2 CLR
08:29 63.5 °F 62.3 °F 29.87 in South 3.5 mph 0.1 mph 96 % 0 in 181.00 W/m2 CLR
08:34 63.7 °F 62.5 °F 29.86 in Calm     96 % 0 in 192.00 W/m2 CLR
08:39 64 °F 62.8 °F 29.86 in Calm     96 % 0 in 172.00 W/m2 CLR
08:44 64.3 °F 63.1 °F 29.87 in Calm     96 % 0 in 207.00 W/m2 CLR
08:49 64.6 °F 63.4 °F 29.87 in South 4.6 mph 1.4 mph 96 % 0 in 65.00 W/m2 CLR
08:54 64.5 °F 63.3 °F 29.87 in SSE 5.8 mph 1.3 mph 96 % 0 in 251.00 W/m2 CLR
08:59 64.8 °F 63.6 °F 29.87 in South 3.5 mph 0.4 mph 96 % 0 in 178.00 W/m2 CLR
09:04 65 °F 63.8 °F 29.87 in South 6 mph 4.3 mph 96 % 0 in 218.00 W/m2 OVC
09:09 65.3 °F 64.1 °F 29.86 in SSE 4 mph 0.3 mph 96 % 0 in 218.00 W/m2 OVC
09:14 65.6 °F 64.4 °F 29.87 in South 5 mph 0.8 mph 96 % 0 in 236.00 W/m2 OVC
09:19 65.7 °F 64.5 °F 29.86 in SSW 2.3 mph 0.9 mph 96 % 0 in 287.00 W/m2 OVC
09:24 65.9 °F 64.7 °F 29.86 in SSW 4 mph 0.6 mph 96 % 0 in 216.00 W/m2 OVC
09:29 66.4 °F 65.2 °F 29.86 in SSW 2.3 mph 0.2 mph 96 % 0 in 497.00 W/m2 OVC
09:34 67 °F 65.8 °F 29.86 in Calm     96 % 0 in 464.00 W/m2 OVC
09:39 67.8 °F 66.6 °F 29.86 in SSW 5.8 mph 0.6 mph 96 % 0 in 482.00 W/m2 OVC
09:44 68.3 °F 67.1 °F 29.86 in South 2.3 mph   96 % 0 in 330.00 W/m2 OVC
09:49 68.6 °F 67.4 °F 29.86 in SSW 3.5 mph 1.6 mph 96 % 0 in 308.00 W/m2 OVC
09:54 69 °F 67.8 °F 29.86 in SSW 5 mph 4.2 mph 96 % 0 in 540.00 W/m2 OVC
09:59 69.6 °F 68.4 °F 29.86 in SSW 4.6 mph 1.7 mph 96 % 0 in 482.00 W/m2 OVC
10:04 70 °F 68.5 °F 29.86 in SSW 6.9 mph 3.2 mph 95 % 0 in 476.00 W/m2 CLR
10:09 70.9 °F 69.1 °F 29.86 in SW 3.5 mph   94 % 0 in 740.00 W/m2 CLR
10:14 71.5 °F 68.7 °F 29.86 in SSW 8.1 mph 4.5 mph 91 % 0 in 250.00 W/m2 CLR
10:19 71.8 °F 68.1 °F 29.85 in SSW 4.6 mph 1.7 mph 88 % 0 in 246.00 W/m2 CLR
10:24 72.5 °F 68.4 °F 29.85 in SW 5.8 mph 1.9 mph 87 % 0 in 795.00 W/m2 CLR
10:29 73 °F 68.2 °F 29.85 in WSW 9.2 mph 3.6 mph 85 % 0 in 724.00 W/m2 CLR
10:34 73.4 °F 68.3 °F 29.85 in WSW 6.9 mph 4.2 mph 84 % 0 in 749.00 W/m2 CLR
10:39 73.8 °F 68 °F 29.85 in SW 9.2 mph 3.8 mph 82 % 0 in 381.00 W/m2 CLR
10:44 73.8 °F 68.3 °F 29.85 in SW 3.5 mph 0.6 mph 83 % 0 in 360.00 W/m2 CLR
10:49 74 °F 68.2 °F 29.84 in SW 5.8 mph 3.1 mph 82 % 0 in 777.00 W/m2 CLR
10:54 74.4 °F 67.5 °F 29.85 in SW 7 mph 1.7 mph 79 % 0 in 315.00 W/m2 CLR
10:59 74.2 °F 66.9 °F 29.84 in SW 3.5 mph   78 % 0 in 287.00 W/m2 CLR
11:04 74.1 °F 66.8 °F 29.84 in SW 7 mph 1.4 mph 78 % 0 in 237.00 W/m2 BKN
11:09 74.5 °F 66.8 °F 29.84 in SW 9 mph 4.3 mph 77 % 0 in 900.00 W/m2 BKN
11:14 75 °F 65.8 °F 29.84 in SSW 9.2 mph 2.5 mph 73 % 0 in 292.00 W/m2 BKN
11:19 75.3 °F 66.4 °F 29.84 in SSW 13 mph 4.6 mph 74 % 0 in 937.00 W/m2 BKN
11:24 75.7 °F 65.6 °F 29.84 in SW 11.5 mph 2.1 mph 71 % 0 in 817.00 W/m2 BKN
11:29 76.2 °F 65.3 °F 29.84 in SW 6.9 mph 5.5 mph 69 % 0 in 250.00 W/m2 BKN
11:34 75.9 °F 65.4 °F 29.84 in SW 4 mph 0.3 mph 70 % 0 in 225.00 W/m2 BKN
11:39 76 °F 65.9 °F 29.84 in SW 10.4 mph 2.9 mph 71 % 0 in 824.00 W/m2 BKN
11:44 76.5 °F 65.6 °F 29.84 in SSW 11.5 mph 4.9 mph 69 % 0 in 626.00 W/m2 BKN
11:49 76.9 °F 66.4 °F 29.84 in SSW 5.8 mph 2.1 mph 70 % 0 in 860.00 W/m2 BKN
11:54 77.4 °F 66 °F 29.84 in SW 4 mph 1.6 mph 68 % 0 in 334.00 W/m2 BKN
11:59 77 °F 65.6 °F 29.84 in SSW 5.8 mph 1 mph 68 % 0 in 388.00 W/m2 BKN
12:04 76.5 °F 65.1 °F 29.84 in SSW 4 mph 3 mph 68 % 0 in 327.00 W/m2 BKN
12:09 76.3 °F 65.8 °F 29.83 in Calm     70 % 0 in 387.00 W/m2 BKN
12:14 76.8 °F 65.9 °F 29.83 in SW 10.4 mph 3.6 mph 69 % 0 in 369.00 W/m2 BKN
12:19 76.8 °F 65 °F 29.83 in SSW 10.4 mph 2.8 mph 67 % 0 in 411.00 W/m2 BKN
12:24 76.7 °F 64.9 °F 29.83 in SSW 4.6 mph 2 mph 67 % 0 in 529.00 W/m2 BKN
12:29 77.1 °F 64.9 °F 29.83 in SSW 9.2 mph 4.6 mph 66 % 0 in 942.00 W/m2 BKN
12:34 77.6 °F 66.2 °F 29.83 in SSW 12.7 mph 5.2 mph 68 % 0 in 942.00 W/m2 BKN
12:39 77.8 °F 65.5 °F 29.83 in SW 8 mph 2.1 mph 66 % 0 in 313.00 W/m2 BKN
12:44 77.8 °F 65.1 °F 29.83 in SW 4.6 mph 2 mph 65 % 0 in 550.00 W/m2 BKN
12:49 77.9 °F 64.7 °F 29.83 in SW 11.5 mph 3 mph 64 % 0 in 392.00 W/m2 BKN
12:54 77.6 °F 64.5 °F 29.83 in SW 1.2 mph 0.5 mph 64 % 0 in 269.00 W/m2 BKN
12:59 77.6 °F 64.5 °F 29.83 in SSW 5 mph 5.2 mph 64 % 0 in 796.00 W/m2 BKN
13:04 77.8 °F 64.6 °F 29.82 in SSW 6 mph 2.1 mph 64 % 0 in 271.00 W/m2 BKN
13:09 77.9 °F 65.2 °F 29.82 in SW 4 mph 1.9 mph 65 % 0 in 788.00 W/m2 BKN
13:14 78.1 °F 64 °F 29.82 in SW 3.5 mph 0.8 mph 62 % 0 in 696.00 W/m2 BKN
13:19 78.5 °F 64.4 °F 29.82 in SSW 11.5 mph 2.7 mph 62 % 0 in 807.00 W/m2 BKN
13:24 79 °F 65.8 °F 29.81 in SW 3.5 mph 1 mph 64 % 0 in 809.00 W/m2 BKN
13:29 79.3 °F 64.2 °F 29.80 in WSW 5.8 mph 1.5 mph 60 % 0 in 777.00 W/m2 BKN
13:34 79.5 °F 65.3 °F 29.80 in SW 5 mph 1.6 mph 62 % 0 in 765.00 W/m2 BKN
13:39 79.8 °F 64.7 °F 29.78 in SW 5.8 mph 3.5 mph 60 % 0 in 719.00 W/m2 BKN
13:44 79.9 °F 64.8 °F 29.77 in SW 12 mph 6 mph 60 % 0 in 754.00 W/m2 BKN
13:49 80 °F 65.3 °F 29.77 in SW 5 mph 2 mph 61 % 0 in 749.00 W/m2 BKN
13:54 80 °F 64.4 °F 29.76 in SW 4 mph 2.5 mph 59 % 0 in 663.00 W/m2 BKN
13:59 80.2 °F 64.1 °F 29.75 in SW 7 mph 2.2 mph 58 % 0 in 626.00 W/m2 BKN
14:04 80.4 °F 65.2 °F 29.74 in SSW 10 mph 3.6 mph 60 % 0 in 751.00 W/m2 FEW
14:09 80.6 °F 65.4 °F 29.74 in SSW 8.1 mph 2.1 mph 60 % 0 in 710.00 W/m2 FEW
14:14 80.8 °F 65.1 °F 29.74 in SSW 9.2 mph 3.1 mph 59 % 0 in 742.00 W/m2 FEW
14:19 80.5 °F 64.9 °F 29.75 in SSW 6 mph 3.4 mph 59 % 0 in 236.00 W/m2 FEW
14:24 79.5 °F 64.4 °F 29.76 in SSW 7 mph 2.7 mph 60 % 0 in 102.00 W/m2 FEW
14:29 78.8 °F 64.2 °F 29.76 in SW 5 mph 2.5 mph 61 % 0 in 107.00 W/m2 FEW
14:34 78.3 °F 64.2 °F 29.76 in SSW 6 mph 3.9 mph 62 % 0 in 60.00 W/m2 FEW
14:39 78 °F 64.4 °F 29.75 in SW 1 mph 1.2 mph 63 % 0 in 60.00 W/m2 FEW
14:44 77.8 °F 64.6 °F 29.75 in SW 5 mph 0.1 mph 64 % 0 in 51.00 W/m2 FEW
14:49 77.6 °F 64.5 °F 29.75 in SW 5 mph 2.3 mph 64 % 0 in 25.00 W/m2 FEW
14:54 77.6 °F 64.5 °F 29.74 in SSW 2.3 mph 0.6 mph 64 % 0 in 42.00 W/m2 FEW
14:59 77.5 °F 64.4 °F 29.74 in SSW 9.2 mph 3.4 mph 64 % 0 in 30.00 W/m2 FEW
15:04 77.5 °F 64.8 °F 29.73 in SSW 7 mph 3.3 mph 65 % 0 in 23.00 W/m2 BKN
15:09 77.4 °F 65.1 °F 29.74 in SW 8.1 mph 1.6 mph 66 % 0 in 9.00 W/m2 BKN
15:14 76.8 °F 66.3 °F 29.81 in WSW 11.5 mph 6.3 mph 70 % 0.01 in 0.00 W/m2 RA
15:19 71.9 °F 63.2 °F 29.81 in WNW 18.4 mph 7.2 mph 74 % 0.15 in 0.00 W/m2 RA
15:24 68 °F 62.6 °F 29.81 in West 13.8 mph 5.7 mph 83 % 0.33 in 0.00 W/m2 RA
15:29 66.5 °F 62.5 °F 29.79 in West 11 mph 10.1 mph 87 % 0.46 in 0.00 W/m2 RA
15:34 65.5 °F 62.2 °F 29.79 in West 13.8 mph 9.5 mph 89 % 0.53 in 0.00 W/m2 RA
15:39 65.1 °F 62.1 °F 29.79 in WSW 11.5 mph 5.5 mph 90 % 0.54 in 0.00 W/m2 RA
15:44 64.9 °F 62.2 °F 29.79 in WSW 9.2 mph 0.9 mph 91 % 0.55 in 0.00 W/m2 RA
15:49 64.7 °F 62.3 °F 29.78 in Calm   1.4 mph 92 % 0.57 in 0.00 W/m2 RA
15:54 64.7 °F 62.3 °F 29.78 in WSW 6.9 mph 2 mph 92 % 0.58 in 5.00 W/m2 RA
15:59 64.6 °F 62.5 °F 29.76 in WSW 1.2 mph 0.1 mph 93 % 0.6 in 9.00 W/m2 RA
16:04 64.5 °F 62.4 °F 29.77 in Calm     93 % 0.61 in 11.00 W/m2 RA
16:09 64.5 °F 62.4 °F 29.76 in Calm     93 % 0.61 in 14.00 W/m2 RA
16:14 64.5 °F 62.4 °F 29.77 in Calm     93 % 0.6 in 23.00 W/m2 OVC
16:19 64.5 °F 62.4 °F 29.77 in Calm     93 % 0.46 in 42.00 W/m2 OVC
16:24 64.6 °F 62.8 °F 29.77 in Calm     94 % 0.28 in 47.00 W/m2 OVC
16:29 64.5 °F 62.7 °F 29.77 in Calm     94 % 0.15 in 26.00 W/m2 OVC
16:34 64.6 °F 62.8 °F 29.77 in Calm     94 % 0.08 in 25.00 W/m2 OVC
16:39 64.7 °F 62.9 °F 29.78 in Calm     94 % 0.07 in 40.00 W/m2 OVC
16:44 64.7 °F 62.9 °F 29.77 in Calm     94 % 0.06 in 62.00 W/m2 OVC
Compliments of Weather Underground - 1.75 mb